KNFL/NFL METAR and TAF weather

Enter ICAO airport designator
Station Type Date Time Source
KNFL METAR 2019/08/19 07:56 UTC NOAA

KNFL 190756Z AUTO 00000KT 10SM CLR 21/06 A2995 RMK AO2 SLP114 T02060056 403610144


Station Type Date Time Source
KNFL Decoded METAR 2019/08/19 07:56 UTC NOAA

Station name not available
Aug 19, 2019 - 03:56 AM EDT / 2019.08.19 0756 UTC
Wind: Calm:0
Visibility: 10 mile(s):0
Sky conditions: clear
Temperature: 69.1 F (20.6 C)
Dew Point: 42.1 F (5.6 C)
Relative Humidity: 37%
Pressure (altimeter): 29.95 in. Hg (1014 hPa)
ob: KNFL 190756Z AUTO 00000KT 10SM CLR 21/06 A2995 RMK AO2 SLP114 T02060056 403610144
cycle: 8

Station Type Date Time Source
KNFL TAF 2019/08/19 07:09 UTC NOAA

TAF TAF KNFL 1907/2007 VRB06KT 9999 SKC QNH2975INS
FM191900 VRB06KT 9999 SKC QNH2974INS
FM200100 32009KT 9999 FEW200 QNH2976INS AUTOMATED SENSOR METWATCH 1907 TIL 1911 T16/1913Z T36/1922Z FS30153

Example: see airport list